Time;durP1;ratioP1;P1;durP2;ratioP2;P2;SDS_P1;SDS_P2;PMS_P1;PMS_P2;Temp;Humidity;BMP_temperature;BMP_pressure;BME280_temperature;BME280_humidity;BME280_pressure;Samples;Min_cycle;Max_cycle;Signal;HPM_P1;HPM_P2
2023/04/13 00:00:34;;;;;;;2.10;1.08;;;7.10;99.90;;;;;;4902591;29;20428;-82
2023/04/13 00:03:00;;;;;;;1.63;0.85;;;7.10;99.90;;;;;;4917266;29;20122;-82
2023/04/13 00:05:28;;;;;;;3.65;0.77;;;7.10;99.90;;;;;;4918251;29;20471;-82
2023/04/13 00:07:54;;;;;;;1.55;0.80;;;7.10;99.90;;;;;;4918423;29;20044;-82
2023/04/13 00:10:21;;;;;;;5.10;0.90;;;7.10;99.90;;;;;;4919069;29;20100;-82
2023/04/13 00:12:48;;;;;;;3.35;1.20;;;7.10;99.90;;;;;;4919010;29;20146;-82
2023/04/13 00:15:14;;;;;;;2.33;1.15;;;7.10;99.90;;;;;;4917848;29;20486;-81
2023/04/13 00:17:44;;;;;;;4.40;1.33;;;7.10;99.90;;;;;;4919205;29;20048;-82
2023/04/13 00:20:14;;;;;;;4.18;1.20;;;7.10;99.90;;;;;;4919013;29;20115;-82
2023/04/13 00:22:41;;;;;;;4.10;0.90;;;7.00;99.90;;;;;;4917853;29;20058;-82
2023/04/13 00:25:07;;;;;;;7.10;1.42;;;7.10;99.90;;;;;;4915691;29;20119;-82
2023/04/13 00:27:36;;;;;;;5.20;1.10;;;7.10;99.90;;;;;;4919448;29;20048;-82
2023/04/13 00:30:03;;;;;;;5.40;0.93;;;7.10;99.90;;;;;;4921260;29;20040;-82
2023/04/13 00:32:30;;;;;;;3.45;1.08;;;7.20;99.90;;;;;;4918104;29;20041;-82
2023/04/13 00:34:58;;;;;;;5.32;1.10;;;7.20;99.90;;;;;;4916514;29;20111;-82
2023/04/13 00:37:29;;;;;;;5.18;1.60;;;7.20;99.90;;;;;;4902053;29;20440;-82
2023/04/13 00:39:55;;;;;;;3.38;1.27;;;7.10;99.90;;;;;;4918780;29;20481;-82
2023/04/13 00:42:22;;;;;;;5.53;1.45;;;7.10;99.90;;;;;;4917069;29;20048;-82
2023/04/13 00:44:49;;;;;;;5.38;1.20;;;7.10;99.90;;;;;;4918773;29;20044;-82
2023/04/13 00:47:16;;;;;;;9.43;1.33;;;7.10;99.90;;;;;;4902114;29;20040;-83
2023/04/13 00:49:43;;;;;;;6.22;1.35;;;7.20;99.90;;;;;;4917641;29;20072;-82
2023/04/13 00:52:11;;;;;;;9.13;1.63;;;7.20;99.90;;;;;;4918368;29;20127;-82
2023/04/13 00:54:38;;;;;;;7.45;1.55;;;7.20;99.90;;;;;;4900359;29;20044;-82
2023/04/13 00:57:04;;;;;;;8.93;1.40;;;7.20;99.90;;;;;;4918461;29;20051;-82
2023/04/13 00:59:32;;;;;;;4.05;1.05;;;7.20;99.90;;;;;;4886266;29;20055;-82
2023/04/13 01:02:03;;;;;;;4.68;1.13;;;7.30;99.90;;;;;;4916436;29;20052;-82
2023/04/13 01:04:31;;;;;;;4.03;1.33;;;7.30;99.90;;;;;;4917067;29;20048;-81
2023/04/13 01:06:57;;;;;;;4.05;1.17;;;7.20;99.90;;;;;;4917537;29;20071;-82
2023/04/13 01:09:24;;;;;;;7.15;1.63;;;7.20;99.90;;;;;;4917290;29;20127;-83
2023/04/13 01:11:51;;;;;;;6.43;1.48;;;7.20;99.90;;;;;;4917580;29;20424;-82
2023/04/13 01:14:17;;;;;;;7.07;1.20;;;7.20;99.90;;;;;;4916926;29;20043;-82
2023/04/13 01:16:45;;;;;;;12.15;1.63;;;7.20;99.90;;;;;;4916304;29;20048;-82
2023/04/13 01:19:12;;;;;;;9.02;1.95;;;7.20;99.90;;;;;;4917283;29;20055;-83
2023/04/13 01:21:39;;;;;;;4.40;1.23;;;7.20;99.90;;;;;;4916222;29;20147;-82
2023/04/13 01:24:05;;;;;;;9.18;1.40;;;7.20;99.90;;;;;;4916820;29;20052;-82
2023/04/13 01:26:32;;;;;;;7.45;1.92;;;7.30;99.90;;;;;;4917315;29;20054;-83
2023/04/13 01:28:59;;;;;;;6.05;1.20;;;7.30;99.90;;;;;;4916421;29;20044;-82
2023/04/13 01:31:25;;;;;;;7.10;1.35;;;7.30;99.90;;;;;;4918227;29;20381;-83
2023/04/13 01:33:52;;;;;;;4.95;1.40;;;7.30;99.90;;;;;;4916652;29;20060;-83
2023/04/13 01:36:19;;;;;;;8.15;1.35;;;7.30;99.90;;;;;;4916172;29;20374;-82
2023/04/13 01:38:46;;;;;;;4.22;1.27;;;7.30;99.90;;;;;;4920451;29;20047;-83
2023/04/13 01:41:14;;;;;;;6.13;1.70;;;7.30;99.90;;;;;;4920507;29;20051;-83
2023/04/13 01:43:44;;;;;;;6.97;1.67;;;7.30;99.90;;;;;;4920495;29;20074;-82
2023/04/13 01:46:15;;;;;;;6.82;1.75;;;7.30;99.90;;;;;;4921777;29;20527;-82
2023/04/13 01:49:06;;;;;;;4.93;1.50;;;7.30;99.90;;;;;;4919836;29;20498;-83
2023/04/13 01:51:41;;;;;;;8.38;1.63;;;7.30;99.90;;;;;;4920831;29;20056;-82
2023/04/13 01:54:11;;;;;;;12.35;1.52;;;7.30;99.90;;;;;;4920212;29;20059;-83
2023/04/13 01:56:39;;;;;;;4.45;1.20;;;7.20;99.90;;;;;;4903773;29;20052;-83
2023/04/13 01:59:06;;;;;;;4.15;1.50;;;7.30;99.90;;;;;;4920441;29;20056;-83
2023/04/13 02:01:35;;;;;;;9.20;1.50;;;7.30;99.90;;;;;;4919437;29;20309;-83
2023/04/13 02:04:02;;;;;;;2.72;1.10;;;7.30;99.90;;;;;;4920125;29;20048;-83
2023/04/13 02:06:31;;;;;;;17.08;1.75;;;7.20;99.90;;;;;;4920055;29;20078;-82
2023/04/13 02:09:00;;;;;;;5.18;1.55;;;7.20;99.90;;;;;;4919263;29;20052;-83
2023/04/13 02:11:27;;;;;;;12.43;1.92;;;7.20;99.90;;;;;;4920225;29;20040;-82
2023/04/13 02:13:56;;;;;;;3.70;1.30;;;7.10;99.90;;;;;;4919925;29;20044;-83
2023/04/13 02:16:24;;;;;;;8.20;1.48;;;7.10;99.90;;;;;;4919216;29;20044;-82
2023/04/13 02:18:50;;;;;;;10.70;1.85;;;7.10;99.90;;;;;;4920207;29;20044;-82
2023/04/13 02:21:17;;;;;;;8.82;1.58;;;7.00;99.90;;;;;;4919043;29;20036;-83
2023/04/13 02:23:44;;;;;;;8.93;1.45;;;7.00;99.90;;;;;;4919658;29;20044;-83
2023/04/13 02:26:11;;;;;;;10.02;1.60;;;6.90;99.90;;;;;;4920137;29;20124;-83
2023/04/13 02:28:39;;;;;;;11.50;1.85;;;6.90;99.90;;;;;;4919136;29;20048;-83
2023/04/13 02:31:05;;;;;;;5.40;1.60;;;6.90;99.90;;;;;;4920191;29;20078;-83
2023/04/13 02:33:32;;;;;;;16.10;2.53;;;6.90;99.90;;;;;;4919636;29;20048;-83
2023/04/13 02:35:59;;;;;;;9.23;1.65;;;6.90;99.90;;;;;;4919096;29;20127;-83
2023/04/13 02:38:27;;;;;;;10.80;1.75;;;6.90;99.90;;;;;;4920008;29;20055;-83
2023/04/13 02:40:59;;;;;;;7.57;1.65;;;6.80;99.90;;;;;;4919912;29;20135;-82
2023/04/13 02:43:27;;;;;;;8.50;1.85;;;6.80;99.90;;;;;;4918338;29;20052;-83
2023/04/13 02:45:54;;;;;;;5.95;1.50;;;6.80;99.90;;;;;;4919847;29;20100;-83
2023/04/13 02:48:25;;;;;;;11.27;1.52;;;6.80;99.90;;;;;;4918994;29;20084;-83
2023/04/13 02:50:54;;;;;;;14.23;1.80;;;6.80;99.90;;;;;;4918881;29;20048;-83
2023/04/13 02:53:25;;;;;;;5.68;1.40;;;6.70;99.90;;;;;;4919200;29;20047;-84
2023/04/13 02:55:57;;;;;;;;;;;6.70;99.90;;;;;;4918374;29;20432;-84
2023/04/13 02:58:24;;;;;;;9.98;1.70;;;6.70;99.90;;;;;;4919530;29;19931;-83
2023/04/13 03:00:57;;;;;;;9.68;2.00;;;6.70;99.90;;;;;;4919487;29;20046;-82
2023/04/13 03:03:24;;;;;;;8.35;1.40;;;6.80;99.90;;;;;;4902461;29;20087;-83
2023/04/13 03:05:51;;;;;;;8.93;2.20;;;6.80;99.90;;;;;;4918625;29;20112;-84
2023/04/13 03:08:22;;;;;;;5.72;1.33;;;6.80;99.90;;;;;;4918450;29;20428;-83
2023/04/13 03:10:59;;;;;;;4.25;1.15;;;6.80;99.90;;;;;;4919298;29;20052;-83
2023/04/13 03:13:26;;;;;;;12.65;1.63;;;6.80;99.90;;;;;;4903242;29;20056;-84
2023/04/13 03:15:56;;;;;;;5.28;1.35;;;6.70;99.90;;;;;;4917984;29;20418;-83
2023/04/13 03:18:26;;;;;;;7.72;1.40;;;6.80;99.90;;;;;;4919496;29;20040;-84
2023/04/13 03:20:53;;;;;;;6.28;1.38;;;6.70;99.90;;;;;;4919256;29;20052;-83
2023/04/13 03:23:22;;;;;;;9.75;1.42;;;6.70;99.90;;;;;;4917647;29;20058;-84
2023/04/13 03:25:49;;;;;;;6.28;1.40;;;6.70;99.90;;;;;;4919265;29;20044;-84
2023/04/13 03:28:18;;;;;;;3.95;1.35;;;6.70;99.90;;;;;;4918043;29;20044;-83
2023/04/13 03:30:46;;;;;;;8.73;1.60;;;6.70;99.90;;;;;;4918837;29;20056;-84
2023/04/13 03:33:12;;;;;;;3.85;1.52;;;6.60;99.90;;;;;;4919927;29;20071;-83
2023/04/13 03:35:40;;;;;;;12.35;1.58;;;6.60;99.90;;;;;;4918523;29;20052;-83
2023/04/13 03:38:14;;;;;;;5.45;1.25;;;6.60;99.90;;;;;;4919004;29;20052;-84
2023/04/13 03:40:43;;;;;;;9.68;1.50;;;6.60;99.90;;;;;;4918811;29;20483;-83
2023/04/13 03:43:10;;;;;;;4.72;1.45;;;6.50;99.90;;;;;;4901987;29;20070;-83
2023/04/13 03:45:42;;;;;;;10.30;1.75;;;6.50;99.90;;;;;;4918534;29;20056;-82
2023/04/13 03:48:13;;;;;;;9.00;1.98;;;6.40;99.90;;;;;;4917713;29;20052;-84
2023/04/13 03:50:39;;;;;;;8.05;1.40;;;6.50;99.90;;;;;;4918600;29;20143;-84
2023/04/13 03:53:08;;;;;;;10.45;1.60;;;6.50;99.90;;;;;;4918672;29;20058;-84
2023/04/13 03:55:34;;;;;;;12.38;2.28;;;6.50;99.90;;;;;;4916628;29;20040;-84
2023/04/13 03:58:06;;;;;;;11.47;1.93;;;6.50;99.90;;;;;;4918521;29;20051;-83
2023/04/13 04:00:33;;;;;;;5.18;1.45;;;6.40;99.90;;;;;;4918172;29;20044;-83
2023/04/13 04:03:18;;;;;;;5.72;1.23;;;6.40;99.90;;;;;;4901223;29;20055;-84
2023/04/13 04:06:01;;;;;;;7.53;1.77;;;6.40;99.90;;;;;;4918017;29;20563;-84
2023/04/13 04:08:29;;;;;;;7.85;1.17;;;6.50;99.90;;;;;;4901508;29;20107;-83
2023/04/13 04:11:00;;;;;;;10.60;1.67;;;6.50;99.90;;;;;;4918249;29;20055;-84
2023/04/13 04:13:28;;;;;;;12.32;1.88;;;6.40;99.90;;;;;;4902062;29;20071;-84
2023/04/13 04:15:57;;;;;;;4.80;1.42;;;6.40;99.90;;;;;;4917074;29;20063;-83
2023/04/13 04:18:26;;;;;;;7.82;1.40;;;6.40;99.90;;;;;;4917974;29;20107;-82
2023/04/13 04:20:53;;;;;;;10.15;1.73;;;6.30;99.90;;;;;;4918369;29;20040;-82
2023/04/13 04:23:27;;;;;;;7.80;1.92;;;6.40;99.90;;;;;;4916597;29;20135;-82
2023/04/13 04:26:03;;;;;;;13.02;1.52;;;6.40;99.90;;;;;;4918118;29;20446;-84
2023/04/13 04:28:39;;;;;;;10.05;1.70;;;6.40;99.90;;;;;;4917009;29;20052;-85
2023/04/13 04:31:10;;;;;;;11.10;1.88;;;6.40;99.90;;;;;;4918014;29;20048;-83
2023/04/13 04:33:41;;;;;;;7.50;1.50;;;6.30;99.90;;;;;;4917665;29;20075;-84
2023/04/13 04:36:12;;;;;;;7.50;1.38;;;6.30;99.90;;;;;;4916651;29;20048;-83
2023/04/13 04:38:50;;;;;;;8.60;1.52;;;6.30;99.90;;;;;;4917956;29;20111;-83
2023/04/13 04:41:19;;;;;;;11.10;1.55;;;6.30;99.90;;;;;;4900975;29;20048;-83
2023/04/13 04:43:49;;;;;;;10.43;1.65;;;6.30;99.90;;;;;;4917351;29;20040;-83
2023/04/13 04:46:17;;;;;;;17.63;1.58;;;6.30;99.90;;;;;;4917303;29;20505;-84
2023/04/13 04:48:50;;;;;;;12.82;1.88;;;6.20;99.90;;;;;;4916642;29;20048;-84
2023/04/13 04:51:23;;;;;;;9.48;1.70;;;6.30;99.90;;;;;;4917576;29;20040;-82
2023/04/13 04:53:52;;;;;;;10.20;1.70;;;6.20;99.90;;;;;;4917134;29;20048;-83
2023/04/13 04:56:21;;;;;;;20.98;1.75;;;6.20;99.90;;;;;;4916718;29;20047;-84
2023/04/13 04:58:51;;;;;;;4.93;1.27;;;6.20;99.90;;;;;;4917796;29;20591;-82
2023/04/13 05:01:25;;;;;;;8.13;1.35;;;6.20;99.90;;;;;;4917227;29;20068;-83
2023/04/13 05:04:02;;;;;;;9.02;2.00;;;6.10;99.90;;;;;;4917536;29;20653;-83
2023/04/13 05:06:34;;;;;;;;;;;6.10;99.90;;;;;;4918014;29;20044;-83
2023/04/13 05:09:01;;;;;;;;;;;6.20;99.90;;;;;;4901414;29;19934;-84
2023/04/13 05:11:31;;;;;;;;;;;6.20;99.90;;;;;;4902760;29;19978;-84
2023/04/13 05:13:59;;;;;;;;;;;6.20;99.90;;;;;;4907895;29;19923;-83
2023/04/13 05:16:29;;;;;;;;;;;6.20;99.90;;;;;;4923327;29;19966;-84
2023/04/13 05:19:07;;;;;;;;;;;6.10;99.90;;;;;;4908251;29;19927;-83
2023/04/13 05:21:49;;;;;;;;;;;6.10;99.90;;;;;;4907236;29;19923;-84
2023/04/13 05:24:16;;;;;;;;;;;6.10;99.90;;;;;;4923592;29;19937;-84
2023/04/13 05:26:44;;;;;;;;;;;6.10;99.90;;;;;;4924408;29;19931;-84
2023/04/13 05:29:15;;;;;;;;;;;6.10;99.90;;;;;;4923107;29;19950;-84
2023/04/13 05:31:43;;;;;;;;;;;6.10;99.90;;;;;;4924308;29;20334;-83
2023/04/13 05:34:10;;;;;;;;;;;6.10;99.90;;;;;;4908069;29;19923;-82
2023/04/13 05:36:39;;;;;;;;;;;6.10;99.90;;;;;;4922892;29;19929;-82
2023/04/13 05:39:09;;;;;;;;;;;6.10;99.90;;;;;;4924110;29;19962;-83
2023/04/13 05:41:37;;;;;;;;;;;6.10;99.90;;;;;;4907193;29;19973;-83
2023/04/13 05:44:04;;;;;;;;;;;6.00;99.90;;;;;;4907798;29;20002;-82
2023/04/13 05:46:33;;;;;;;;;;;6.10;99.90;;;;;;4924809;29;19923;-82
2023/04/13 05:49:03;;;;;;;;;;;6.10;99.90;;;;;;4922905;29;19923;-83
2023/04/13 05:51:31;;;;;;;;;;;6.20;99.90;;;;;;4923859;29;19927;-84
2023/04/13 05:53:58;;;;;;;;;;;6.20;99.90;;;;;;4907826;29;20365;-83
2023/04/13 05:56:24;;;;;;;;;;;6.20;99.90;;;;;;4922684;29;20340;-83
2023/04/13 05:58:52;;;;;;;;;;;6.20;99.90;;;;;;4923685;29;19923;-84
2023/04/13 06:01:24;;;;;;;;;;;6.20;99.90;;;;;;4922802;29;19923;-83
2023/04/13 06:03:52;;;;;;;;;;;6.30;99.90;;;;;;4923261;29;19930;-84
2023/04/13 06:06:20;;;;;;;;;;;6.30;99.90;;;;;;4923456;29;20031;-82
2023/04/13 06:08:47;;;;;;;;;;;6.40;99.90;;;;;;4922864;29;20277;-83
2023/04/13 06:11:15;;;;;;;;;;;6.50;99.90;;;;;;4923537;29;19926;-82
2023/04/13 06:13:42;;;;;;;;;;;6.50;99.90;;;;;;4923096;29;20284;-84
2023/04/13 06:16:09;;;;;;;;;;;6.60;99.90;;;;;;4922621;29;19992;-83
2023/04/13 06:18:36;;;;;;;;;;;6.60;99.90;;;;;;4923510;29;19965;-83
2023/04/13 06:21:03;;;;;;;;;;;6.70;99.90;;;;;;4923466;29;19930;-84
2023/04/13 06:23:29;;;;;;;;;;;6.80;99.90;;;;;;4921740;29;20025;-82
2023/04/13 06:25:59;;;;;;;;;;;6.80;99.90;;;;;;4920058;29;19923;-82
2023/04/13 06:28:50;;;;;;;;;;;6.90;99.90;;;;;;4920409;29;19923;-83
2023/04/13 06:31:17;;;;;;;;;;;7.00;99.90;;;;;;4920408;29;20302;-83
2023/04/13 06:33:46;;;;;;;;;;;7.10;99.90;;;;;;4919998;29;20339;-83
2023/04/13 06:36:19;;;;;;;;;;;7.10;99.90;;;;;;4919303;29;19923;-83
2023/04/13 06:38:46;;;;;;;;;;;7.20;99.90;;;;;;4922697;29;19938;-84
2023/04/13 06:41:14;;;;;;;;;;;7.30;99.90;;;;;;4920164;29;19934;-82
2023/04/13 06:43:45;;;;;;;;;;;7.30;99.90;;;;;;4920501;29;20013;-85
2023/04/13 06:46:31;;;;;;;;;;;7.40;99.90;;;;;;4920156;29;20021;-83
2023/04/13 06:49:05;;;;;;;;;;;7.50;99.90;;;;;;4919044;29;19931;-83
2023/04/13 06:51:32;;;;;;;;;;;7.50;99.90;;;;;;4920092;29;20527;-84
2023/04/13 06:53:59;;;;;;;;;;;7.60;99.90;;;;;;4919674;29;19923;-83
2023/04/13 06:56:26;;;;;;;;;;;7.70;99.90;;;;;;4919870;29;19927;-84
2023/04/13 06:58:57;;;;;;;;;;;7.80;99.90;;;;;;4920000;29;20259;-84
2023/04/13 07:01:27;;;;;;;;;;;7.90;99.90;;;;;;4903390;29;19974;-83
2023/04/13 07:03:55;;;;;;;;;;;7.90;99.90;;;;;;4919461;29;19933;-84
2023/04/13 07:06:23;;;;;;;;;;;8.00;99.90;;;;;;4919787;29;20345;-83
2023/04/13 07:08:51;;;;;;;;;;;8.00;99.90;;;;;;4918748;29;20409;-84
2023/04/13 07:11:18;;;;;;;;;;;8.10;99.90;;;;;;4919830;29;19970;-84
2023/04/13 07:13:45;;;;;;;;;;;8.10;99.90;;;;;;4919334;29;20029;-84
2023/04/13 07:16:14;;;;;;;;;;;8.20;99.90;;;;;;4918331;29;19965;-83
2023/04/13 07:18:44;;;;;;;;;;;8.20;99.90;;;;;;4919623;29;19928;-83
2023/04/13 07:21:11;;;;;;;;;;;8.30;99.90;;;;;;4919690;29;19996;-84
2023/04/13 07:23:50;;;;;;;;;;;8.40;99.90;;;;;;4919018;29;20018;-84
2023/04/13 07:26:17;;;;;;;;;;;8.50;99.90;;;;;;4919574;29;19970;-84
2023/04/13 07:28:44;;;;;;;;;;;8.60;99.90;;;;;;4918447;29;19929;-85
2023/04/13 07:31:12;;;;;;;;;;;8.50;99.90;;;;;;4919445;29;19939;-83
2023/04/13 07:33:43;;;;;;;;;;;8.70;99.90;;;;;;4919162;29;19934;-83
2023/04/13 07:36:12;;;;;;;;;;;8.80;99.90;;;;;;4918262;29;19931;-84
2023/04/13 07:38:41;;;;;;;;;;;9.00;99.90;;;;;;4919570;29;20282;-84
2023/04/13 07:41:10;;;;;;;;;;;8.90;99.90;;;;;;4919323;29;19923;-85
2023/04/13 07:43:37;;;;;;;;;;;8.90;99.90;;;;;;4917755;29;19977;-85
2023/04/13 07:46:08;;;;;;;;;;;9.00;99.90;;;;;;4919201;29;19922;-84
2023/04/13 07:48:35;;;;;;;;;;;9.10;99.90;;;;;;4917855;29;20033;-83
2023/04/13 07:51:09;;;;;;;;;;;9.20;99.90;;;;;;4918949;29;19923;-86
2023/04/13 07:53:36;;;;;;;;;;;9.30;99.90;;;;;;4918637;29;19962;-85
2023/04/13 07:56:03;;;;;;;;;;;9.40;99.90;;;;;;4918062;29;20370;-84
2023/04/13 07:58:32;;;;;;;;;;;9.40;99.90;;;;;;4918798;29;19986;-86
2023/04/13 08:00:59;;;;;;;;;;;9.50;99.90;;;;;;4918352;29;19923;-84
2023/04/13 08:03:27;;;;;;;;;;;9.50;99.90;;;;;;4901687;29;19923;-83
2023/04/13 08:05:53;;;;;;;;;;;9.70;99.90;;;;;;4919094;29;20014;-85
2023/04/13 08:08:21;;;;;;;;;;;9.80;99.90;;;;;;4902097;29;19934;-82
2023/04/13 08:10:51;;;;;;;;;;;9.80;99.90;;;;;;4902842;29;19934;-84
2023/04/13 08:13:18;;;;;;;;;;;9.80;99.90;;;;;;4919111;29;19963;-86
2023/04/13 08:15:45;;;;;;;;;;;9.90;99.90;;;;;;4886382;29;19986;-87
2023/04/13 08:18:11;;;;;;;;;;;10.00;99.90;;;;;;4919301;29;19931;-86
2023/04/13 08:20:38;;;;;;;;;;;10.00;99.90;;;;;;4902529;29;19934;-86
2023/04/13 08:23:05;;;;;;;;;;;10.10;99.90;;;;;;4900878;29;19934;-85
2023/04/13 08:25:33;;;;;;;;;;;10.10;99.90;;;;;;4918726;29;20339;-81
2023/04/13 08:28:06;;;;;;;;;;;10.10;99.90;;;;;;4901980;29;20315;-82
2023/04/13 08:30:44;;;;;;;;;;;10.30;99.90;;;;;;4902375;29;19927;-83
2023/04/13 08:33:13;;;;;;;;;;;10.40;99.90;;;;;;4886767;29;19926;-85
2023/04/13 08:35:39;;;;;;;;;;;10.60;99.90;;;;;;4901312;29;19986;-82
2023/04/13 08:38:10;;;;;;;;;;;10.70;99.90;;;;;;4902663;29;19923;-83
2023/04/13 08:40:42;;;;;;;;;;;10.60;99.90;;;;;;4902321;29;19923;-81
2023/04/13 08:43:16;;;;;;;;;;;10.70;99.90;;;;;;4900389;29;19934;-83
2023/04/13 08:45:43;;;;;;;;;;;10.80;99.90;;;;;;4901621;29;19982;-83
2023/04/13 08:48:11;;;;;;;;;;;10.80;99.90;;;;;;4900096;29;20234;-83
2023/04/13 08:50:39;;;;;;;;;;;10.70;99.90;;;;;;4901820;29;20413;-82
2023/04/13 08:53:08;;;;;;;;;;;10.60;99.90;;;;;;4901706;29;19959;-82
2023/04/13 08:55:35;;;;;;;;;;;10.60;99.90;;;;;;4900729;29;20361;-82
2023/04/13 08:58:01;;;;;;;;;;;10.80;99.90;;;;;;4902103;29;19930;-83
2023/04/13 09:00:31;;;;;;;;;;;10.90;99.90;;;;;;4883437;29;20354;-83
2023/04/13 09:02:59;;;;;;;;;;;11.10;99.90;;;;;;4897749;29;19934;-82
2023/04/13 09:05:37;;;;;;;;;;;11.00;99.90;;;;;;4899059;29;20232;-83
2023/04/13 09:08:07;;;;;;;;;;;10.80;99.90;;;;;;4897989;29;19924;-84
2023/04/13 09:10:37;;;;;;;;;;;10.90;99.90;;;;;;4883736;29;19930;-84
2023/04/13 09:13:06;;;;;;;;;;;11.00;99.90;;;;;;4906889;29;19927;-84
2023/04/13 09:15:32;;;;;;;;;;;11.30;99.90;;;;;;4916600;29;19930;-85
2023/04/13 09:18:18;;;;;;;;;;;11.40;99.90;;;;;;4909928;29;19934;-84
2023/04/13 09:20:50;;;;;;;;;;;11.60;99.90;;;;;;4914688;29;19927;-83
2023/04/13 09:23:19;;;;;;;;;;;11.60;99.90;;;;;;4935095;29;20013;-84
2023/04/13 09:25:46;;;;;;;;;;;11.60;99.90;;;;;;4933750;29;19930;-85
2023/04/13 09:28:13;;;;;;;;;;;11.70;99.90;;;;;;4917598;29;20410;-84
2023/04/13 09:30:40;;;;;;;;;;;11.80;99.90;;;;;;4902199;29;19986;-84
2023/04/13 09:33:07;;;;;;;;;;;11.70;99.90;;;;;;4918134;29;19931;-84
2023/04/13 09:35:34;;;;;;;;;;;11.60;99.90;;;;;;4901331;29;19966;-83
2023/04/13 09:38:00;;;;;;;;;;;11.60;99.90;;;;;;4902263;29;19942;-85
2023/04/13 09:40:27;;;;;;;;;;;11.70;99.90;;;;;;4919012;29;19934;-83
2023/04/13 09:43:01;;;;;;;;;;;11.80;99.90;;;;;;4916578;29;20361;-86
2023/04/13 09:45:27;;;;;;;;;;;11.90;99.90;;;;;;4901258;29;20338;-82
2023/04/13 09:47:56;;;;;;;;;;;12.00;99.90;;;;;;4918739;29;19933;-85
2023/04/13 09:50:25;;;;;;;;;;;12.20;99.90;;;;;;4902612;29;20006;-84
2023/04/13 09:52:53;;;;;;;;;;;12.50;99.90;;;;;;4918482;29;20021;-83
2023/04/13 09:55:20;;;;;;;;;;;12.60;99.90;;;;;;4901549;29;20360;-89
2023/04/13 09:57:46;;;;;;;;;;;12.80;99.90;;;;;;4902393;29;19923;-82
2023/04/13 10:00:15;;;;;;;;;;;12.80;99.90;;;;;;4921318;29;19923;-84
2023/04/13 10:03:03;;;;;;;;;;;12.90;99.90;;;;;;4920181;29;19927;-86
2023/04/13 10:05:30;;;;;;;;;;;12.90;99.90;;;;;;4905175;29;19923;-83
2023/04/13 10:07:57;;;;;;;;;;;12.80;99.90;;;;;;4920222;29;19974;-83
2023/04/13 10:10:25;;;;;;;;;;;12.80;99.90;;;;;;4921977;29;19930;-83
2023/04/13 10:12:52;;;;;;;;;;;12.90;99.90;;;;;;4905117;29;19973;-86
2023/04/13 10:15:18;;;;;;;;;;;13.00;99.90;;;;;;4921730;29;19923;-85
2023/04/13 10:17:45;;;;;;;;;;;13.00;99.90;;;;;;4921986;29;19958;-85
2023/04/13 10:20:12;;;;;;;;;;;13.00;98.60;;;;;;4905551;29;19923;-83
2023/04/13 10:22:39;;;;;;;;;;;13.20;97.90;;;;;;4931413;29;20017;-83
2023/04/13 10:25:06;;;;;;;;;;;13.10;97.80;;;;;;4940980;29;19923;-82
2023/04/13 10:27:35;;;;;;;;;;;13.20;96.50;;;;;;4939358;29;19962;-83
2023/04/13 10:30:03;;;;;;;;;;;13.10;94.30;;;;;;4938658;29;20230;-81
2023/04/13 10:32:31;;;;;;;;;;;13.20;94.80;;;;;;4939742;29;19958;-86
2023/04/13 10:34:57;;;;;;;;;;;13.50;96.00;;;;;;4936890;29;20021;-83
2023/04/13 10:37:24;;;;;;;;;;;13.80;96.30;;;;;;4927252;29;19966;-83
2023/04/13 10:39:51;;;;;;;;;;;13.80;93.30;;;;;;4939180;29;20366;-85
2023/04/13 10:42:19;;;;;;;;;;;14.10;93.10;;;;;;4907818;29;19927;-80
2023/04/13 10:44:45;;;;;;;;;;;14.30;93.40;;;;;;4920809;29;19923;-85
2023/04/13 10:47:12;;;;;;;;;;;14.50;91.80;;;;;;4904431;29;20018;-83
2023/04/13 10:49:42;;;;;;;;;;;14.60;90.80;;;;;;4903284;29;19934;-84
2023/04/13 10:52:12;;;;;;;;;;;14.70;92.10;;;;;;4904664;29;19960;-85
2023/04/13 10:54:41;;;;;;;;;;;14.30;90.10;;;;;;4919768;29;19931;-83
2023/04/13 10:57:08;;;;;;;;;;;14.50;90.90;;;;;;4904544;29;19934;-84
2023/04/13 10:59:35;;;;;;;;;;;15.10;90.80;;;;;;4904247;29;19927;-83
2023/04/13 11:02:22;;;;;;;;;;;15.10;86.30;;;;;;4900261;29;19924;-82
2023/04/13 11:04:51;;;;;;;;;;;15.40;87.70;;;;;;4903268;29;19924;-83
2023/04/13 11:07:17;;;;;;;;;;;15.60;83.40;;;;;;4939474;29;20349;-84
2023/04/13 11:09:44;;;;;;;;;;;15.90;80.50;;;;;;4938487;29;19926;-85
2023/04/13 11:12:11;;;;;;;;;;;16.20;81.70;;;;;;4883865;29;20290;-83
2023/04/13 11:14:37;;;;;;;;;;;15.80;76.80;;;;;;4917459;29;19930;-84
2023/04/13 11:17:04;;;;;;;;;;;16.10;80.60;;;;;;4919701;29;19923;-84
2023/04/13 11:19:31;;;;;;;;;;;15.80;80.20;;;;;;4920507;29;20350;-84
2023/04/13 11:21:58;;;;;;;;;;;16.30;78.10;;;;;;4919535;29;20354;-84
2023/04/13 11:24:25;;;;;;;;;;;17.10;81.60;;;;;;4919768;29;19927;-81
2023/04/13 11:26:53;;;;;;;;;;;17.00;75.00;;;;;;4914635;29;19926;-85
2023/04/13 11:29:19;;;;;;;;;;;16.60;73.60;;;;;;4914470;29;20385;-85
2023/04/13 11:31:46;;;;;;;;;;;16.20;76.00;;;;;;4920246;29;19934;-83
2023/04/13 11:34:13;;;;;;;;;;;16.40;75.40;;;;;;4903506;29;20338;-83
2023/04/13 11:36:41;;;;;;;;;;;16.50;71.20;;;;;;4902709;29;19927;-82
2023/04/13 11:39:08;;;;;;;;;;;16.00;75.80;;;;;;4920303;29;19970;-83
2023/04/13 11:41:36;;;;;;;;;;;15.80;73.80;;;;;;4919128;29;20188;-82
2023/04/13 11:44:03;;;;;;;;;;;15.10;73.60;;;;;;4919836;29;19934;-82
2023/04/13 11:46:29;;;;;;;;;;;14.30;85.60;;;;;;4903710;29;19923;-82
2023/04/13 11:48:56;;;;;;;;;;;12.90;99.90;;;;;;4918139;29;20388;-82
2023/04/13 11:51:24;;;;;;;;;;;11.80;99.90;;;;;;4903192;29;19930;-81
2023/04/13 11:53:51;;;;;;;;;;;11.30;99.90;;;;;;4918504;29;19931;-80
2023/04/13 11:56:18;;;;;;;;;;;11.20;99.90;;;;;;4918945;29;19945;-81
2023/04/13 11:58:45;;;;;;;;;;;11.00;99.90;;;;;;4903064;29;19946;-81
2023/04/13 12:01:13;;;;;;;;;;;10.80;99.90;;;;;;4903127;29;19927;-83
2023/04/13 12:03:51;;;;;;;;;;;10.70;99.90;;;;;;4918734;29;19927;-81
2023/04/13 12:06:31;;;;;;;;;;;10.90;99.90;;;;;;4919877;29;20030;-82
2023/04/13 12:08:58;;;;;;;;;;;11.90;99.90;;;;;;4902225;29;19951;-84
2023/04/13 12:11:35;;;;;;;;;;;13.00;99.90;;;;;;4920517;29;20385;-83
2023/04/13 12:14:10;;;;;;;;;;;13.70;99.90;;;;;;4919086;29;19927;-83
2023/04/13 12:16:46;;;;;;;;;;;14.30;99.90;;;;;;4918898;29;20318;-82
2023/04/13 12:19:33;;;;;;;;;;;14.00;99.90;;;;;;4920091;29;19997;-85
2023/04/13 12:22:01;;;;;;;;;;;13.20;98.40;;;;;;4917558;29;19930;-83
2023/04/13 12:24:29;;;;;;;;;;;12.80;99.80;;;;;;4919130;29;19961;-84
2023/04/13 12:26:55;;;;;;;;;;;13.00;99.90;;;;;;4919496;29;19930;-82
2023/04/13 12:29:42;;;;;;;;;;;13.60;99.90;;;;;;4918539;29;19923;-85
2023/04/13 12:32:10;;;;;;;;;;;14.20;97.40;;;;;;4919067;29;20266;-81
2023/04/13 12:34:37;;;;;;;;;;;14.70;98.30;;;;;;4916934;29;19958;-82
2023/04/13 12:37:04;;;;;;;;;;;15.10;94.60;;;;;;4918549;29;19923;-84
2023/04/13 12:39:30;;;;;;;;;;;15.30;91.90;;;;;;4919345;29;20014;-84
2023/04/13 12:41:57;;;;;;;;;;;15.50;89.50;;;;;;4916759;29;19923;-88
2023/04/13 12:44:26;;;;;;;;;;;15.40;84.20;;;;;;4902007;29;19978;-82
2023/04/13 12:46:53;;;;;;;;;;;15.90;86.20;;;;;;4902006;29;19923;-81
2023/04/13 12:49:19;;;;;;;;;;;16.30;83.70;;;;;;4901720;29;19934;-81
2023/04/13 12:51:46;;;;;;;;;;;16.50;75.40;;;;;;4919149;29;19923;-81
2023/04/13 12:54:13;;;;;;;;;;;15.90;78.20;;;;;;4917549;29;19934;-81
2023/04/13 12:56:40;;;;;;;;;;;15.80;87.10;;;;;;4917962;29;20346;-82
2023/04/13 12:59:07;;;;;;;;;;;15.90;80.90;;;;;;4918813;29;19922;-82
2023/04/13 13:01:36;;;;;;;;;;;16.10;71.40;;;;;;4916700;29;19931;-82
2023/04/13 13:04:04;;;;;;;;;;;15.50;72.50;;;;;;4918275;29;19930;-81
2023/04/13 13:06:31;;;;;;;;;;;14.00;70.10;;;;;;4917262;29;19926;-81
2023/04/13 13:08:58;;;;;;;;;;;13.20;73.50;;;;;;4916725;29;20301;-81
2023/04/13 13:11:26;;;;;;;;;;;12.20;81.70;;;;;;4917668;29;19923;-81
2023/04/13 13:13:52;;;;;;;;;;;11.40;88.30;;;;;;4917974;29;19923;-81
2023/04/13 13:16:19;;;;;;;;;;;11.00;92.50;;;;;;4916786;29;19923;-81
2023/04/13 13:18:46;;;;;;;;;;;10.80;96.60;;;;;;4918619;29;19962;-81
2023/04/13 13:21:16;;;;;;;;;;;10.60;96.10;;;;;;4917084;29;19923;-81
2023/04/13 13:23:44;;;;;;;;;;;10.40;99.90;;;;;;4917459;29;19927;-80
2023/04/13 13:26:11;;;;;;;;;;;10.40;99.90;;;;;;4919092;29;19931;-81
2023/04/13 13:28:41;;;;;;;;;;;10.40;99.90;;;;;;4916811;29;19927;-81
2023/04/13 13:31:07;;;;;;;;;;;10.70;99.90;;;;;;4917799;29;19923;-81
2023/04/13 13:33:35;;;;;;;;;;;11.70;99.90;;;;;;4918509;29;20018;-81
2023/04/13 13:36:01;;;;;;;;;;;13.00;98.40;;;;;;4921493;29;19927;-81
2023/04/13 13:38:28;;;;;;;;;;;13.80;96.40;;;;;;4922281;29;20336;-81
2023/04/13 13:40:55;;;;;;;;;;;14.70;87.50;;;;;;4922389;29;20297;-81
2023/04/13 13:43:22;;;;;;;;;;;15.40;86.70;;;;;;4920934;29;19938;-81
2023/04/13 13:45:49;;;;;;;;;;;16.20;80.20;;;;;;4921351;29;19923;-82
2023/04/13 13:48:17;;;;;;;;;;;16.60;73.30;;;;;;4920176;29;19927;-81
2023/04/13 13:50:54;;;;;;;;;;;16.90;78.10;;;;;;4920908;29;20346;-79
2023/04/13 13:55:55;;;;;;;;;;;17.60;74.90;;;;;;4920346;29;19923;-82
2023/04/13 13:58:22;;;;;;;;;;;17.80;70.30;;;;;;4922244;29;19934;-82
2023/04/13 14:00:52;;;;;;;;;;;18.30;73.70;;;;;;4921367;29;19923;-82